Airport ID:KEDC
Update Time (UTC):18 SEP 18 21:57
Wind Speed (Knots):3
Wind Direction (Magnetic):200
Temperature (°C):33
Dew Point (°C):20
Humidity (%):47
Altimeter (inHg):29.92
Density Altitude (Feet):2800
Visibility (Miles):10
Clouds (Hundreds of feet):CLR
Present Weather:NO PRECIPITATION
METAR:METAR KEDC 182155Z AUTO 00000KT 10SM CLR 33/19 A2992 RMK AO2

The data displayed is for advisory purposes only and is not to be used for flight planning or operations.

This page is not automatically refreshed. Reload the page to see current data.